Time;durP1;ratioP1;P1;durP2;ratioP2;P2;SDS_P1;SDS_P2;PMS_P1;PMS_P2;Temp;Humidity;BMP_temperature;BMP_pressure;BME280_temperature;BME280_humidity;BME280_pressure;Samples;Min_cycle;Max_cycle;Signal;HPM_P1;HPM_P2
2023/04/06 00:01:10;;;;;;;;;24.75;22.25;;;;;12.12;70.51;100666.00;146607;650;46016;-70
2023/04/06 00:04:24;;;;;;;;;23.50;19.00;;;;;12.09;70.16;100662.38;146607;698;46020;-70
2023/04/06 00:07:43;;;;;;;;;24.00;20.75;;;;;11.03;68.38;100466.34;146608;667;46016;-70
2023/04/06 00:10:52;;;;;;;;;29.75;25.25;;;;;12.18;69.92;100661.06;146613;566;46020;-70
2023/04/06 00:13:58;;;;;;;;;25.75;20.25;;;;;12.25;70.81;100649.22;146607;637;46918;-71
2023/04/06 00:16:59;;;;;;;;;18.25;16.75;;;;;12.27;69.31;100637.16;146611;631;46030;-71
2023/04/06 00:19:59;;;;;;;;;18.25;15.50;;;;;12.28;69.76;100635.47;146608;593;46016;-70
2023/04/06 00:22:53;;;;;;;;;20.50;16.50;;;;;12.32;70.23;100642.56;146611;754;46012;-71
2023/04/06 00:25:50;;;;;;;;;20.00;15.50;;;;;12.34;70.71;100639.22;146609;658;46012;-71
2023/04/06 00:28:51;;;;;;;;;21.25;18.75;;;;;12.41;70.76;100640.34;146613;587;46021;-71
2023/04/06 00:32:18;;;;;;;;;19.25;18.25;;;;;11.75;67.90;100517.97;146608;584;46012;-71
2023/04/06 00:35:25;;;;;;;;;20.50;17.25;;;;;12.48;69.18;100640.66;146603;578;46010;-71
2023/04/06 00:38:29;;;;;;;;;18.00;16.00;;;;;12.50;69.58;100634.66;146610;583;46016;-71
2023/04/06 00:41:26;;;;;;;;;23.25;20.75;;;;;12.51;69.47;100629.50;146614;587;46020;-71
2023/04/06 00:44:27;;;;;;;;;28.00;23.50;;;;;12.51;70.31;100620.81;146609;610;46919;-71
2023/04/06 00:47:25;;;;;;;;;18.50;15.75;;;;;12.51;69.36;100626.91;146614;630;46020;-71
2023/04/06 00:50:27;;;;;;;;;13.75;12.25;;;;;12.48;70.05;100627.66;146611;576;46013;-71
2023/04/06 00:53:54;;;;;;;;;16.50;13.00;;;;;12.49;69.14;100615.53;146611;606;47010;-70
2023/04/06 00:56:52;;;;;;;;;14.75;13.75;;;;;12.47;69.62;100614.59;146611;670;46016;-71
2023/04/06 01:00:07;;;;;;;;;13.50;11.75;;;;;12.43;69.02;100613.59;146612;629;46010;-70
2023/04/06 01:03:12;;;;;;;;;;;;;;;;;;;;;
2023/04/06 01:06:25;;;;;;;;;;;;;;;;;;;;;
2023/04/06 01:09:32;;;;;;;;;12.75;12.00;;;;;12.40;70.40;100609.97;146601;659;47916;-72
2023/04/06 01:12:44;;;;;;;;;14.00;12.75;;;;;12.34;70.59;100596.72;146614;618;46010;-70
2023/04/06 01:15:43;;;;;;;;;14.25;11.75;;;;;12.30;70.30;100594.78;146609;696;46012;-69
2023/04/06 01:18:39;;;;;;;;;12.75;12.00;;;;;12.24;71.04;100580.72;146612;569;46012;-70
2023/04/06 01:21:59;;;;;;;;;14.25;13.25;;;;;12.24;71.15;100575.53;146612;583;46016;-69
2023/04/06 01:24:54;;;;;;;;;17.25;17.00;;;;;12.23;71.01;100562.47;146610;693;46012;-70
2023/04/06 01:27:56;;;;;;;;;30.00;23.75;;;;;12.29;71.16;100556.63;146610;565;48012;-69
2023/04/06 01:30:51;;;;;;;;;12.75;11.50;;;;;12.27;71.19;100551.34;146611;603;46020;-69
2023/04/06 01:33:45;;;;;;;;;13.25;11.75;;;;;12.21;71.68;100549.41;146608;688;46016;-69
2023/04/06 01:36:44;;;;;;;;;10.25;9.25;;;;;12.16;70.95;100548.31;146606;563;46030;-72
2023/04/06 01:39:41;;;;;;;;;15.00;12.00;;;;;12.10;70.84;100545.47;146607;577;47916;-71
2023/04/06 01:42:42;;;;;;;;;11.50;9.25;;;;;12.06;70.94;100540.97;146614;582;46010;-69
2023/04/06 01:45:40;;;;;;;;;9.25;9.00;;;;;12.04;71.00;100540.00;146606;637;46021;-69
2023/04/06 01:48:37;;;;;;;;;9.00;7.75;;;;;11.99;70.90;100534.63;146620;615;46011;-69
2023/04/06 01:51:33;;;;;;;;;10.25;9.25;;;;;11.98;71.06;100548.41;146618;577;46012;-70
2023/04/06 01:54:44;;;;;;;;;;;;;;;;;;;;;
2023/04/06 01:57:58;;;;;;;;;7.25;7.25;;;;;11.90;71.18;100542.03;146619;617;46013;-70
2023/04/06 02:01:09;;;;;;;;;;;;;;;;;;;;;
2023/04/06 02:04:04;;;;;;;;;5.75;5.75;;;;;11.75;71.01;100530.94;146616;556;46016;-70
2023/04/06 02:07:12;;;;;;;;;7.75;7.00;;;;;11.70;71.19;100528.13;146615;573;46020;-71
2023/04/06 02:10:13;;;;;;;;;4.00;4.00;;;;;11.02;70.91;100420.44;146613;629;47918;-70
2023/04/06 02:13:09;;;;;;;;;10.00;7.75;;;;;11.52;70.83;100527.31;146621;592;46021;-71
2023/04/06 02:16:12;;;;;;;;;;;;;;;;;;;;;
2023/04/06 02:19:10;;;;;;;;;6.50;5.75;;;;;11.37;70.74;100530.16;146618;620;46029;-70
2023/04/06 02:22:19;;;;;;;;;;;;;;;;;;;;;
2023/04/06 02:25:39;;;;;;;;;8.25;7.75;;;;;11.45;70.48;100522.69;146619;602;46021;-70
2023/04/06 02:28:35;;;;;;;;;5.50;5.00;;;;;11.46;70.59;100519.25;146614;577;46014;-70
2023/04/06 02:31:35;;;;;;;;;5.75;4.75;;;;;11.45;69.94;100522.69;146619;628;46020;-69
2023/04/06 02:34:38;;;;;;;;;5.75;4.75;;;;;11.41;70.42;100516.47;146615;625;46013;-71
2023/04/06 02:37:54;;;;;;;;;4.25;4.25;;;;;11.40;69.69;100519.00;146612;607;46010;-73
2023/04/06 02:40:55;;;;;;;;;7.75;5.50;;;;;11.41;69.65;100520.78;146617;586;46012;-72
2023/04/06 02:43:50;;;;;;;;;5.25;5.25;;;;;11.40;69.88;100517.31;146621;569;46020;-70
2023/04/06 02:47:00;;;;;;;;;7.25;7.00;;;;;11.41;70.02;100513.00;146616;622;46014;-75
2023/04/06 02:50:12;;;;;;;;;;;;;;;;;;;;;
2023/04/06 02:53:08;;;;;;;;;7.75;7.00;;;;;11.43;70.13;100517.44;146618;564;46016;-73
2023/04/06 02:56:16;;;;;;;;;8.00;6.00;;;;;11.43;70.53;100514.84;146618;590;46020;-72
2023/04/06 02:59:26;;;;;;;;;14.75;13.25;;;;;11.42;70.06;100510.44;146615;620;46012;-72
2023/04/06 03:02:27;;;;;;;;;7.25;7.00;;;;;11.35;70.43;100503.22;146613;580;46012;-69
2023/04/06 03:05:37;;;;;;;;;6.00;5.50;;;;;11.26;70.66;100502.81;146615;610;46017;-69
2023/04/06 03:09:08;;;;;;;;;5.25;4.75;;;;;10.32;68.84;100355.03;146611;584;46010;-70
2023/04/06 03:12:19;;;;;;;;;6.25;5.25;;;;;11.08;70.50;100498.56;146618;595;46918;-71
2023/04/06 03:15:35;;;;;;;;;4.50;4.50;;;;;10.34;70.46;100384.47;146615;615;46010;-71
2023/04/06 03:18:40;;;;;;;;;4.00;4.00;;;;;10.94;70.94;100497.06;146613;700;47916;-70
2023/04/06 03:21:42;;;;;;;;;9.75;7.75;;;;;10.90;70.75;100483.84;146618;697;46010;-69
2023/04/06 03:24:41;;;;;;;;;6.25;4.50;;;;;10.91;70.90;100483.06;146613;583;46016;-71
2023/04/06 03:27:34;;;;;;;;;7.25;7.25;;;;;10.92;70.83;100477.94;146622;621;46010;-70
2023/04/06 03:30:26;;;;;;;;;7.00;6.75;;;;;10.98;70.63;100486.00;146613;582;47012;-71
2023/04/06 03:33:26;;;;;;;;;13.25;11.75;;;;;11.03;70.68;100484.50;146620;613;46013;-72
2023/04/06 03:36:37;;;;;;;;;7.50;6.25;;;;;10.36;69.18;100347.44;146609;647;46016;-72
2023/04/06 03:39:33;;;;;;;;;7.50;7.50;;;;;11.14;69.01;100484.09;146610;626;46010;-70
2023/04/06 03:42:41;;;;;;;;;8.50;7.25;;;;;11.13;69.68;100480.63;146619;564;46917;-71
2023/04/06 03:45:49;;;;;;;;;7.50;6.50;;;;;11.06;69.09;100474.25;146621;619;46020;-71
2023/04/06 03:48:53;;;;;;;;;5.50;5.00;;;;;10.98;68.98;100480.81;146615;638;46015;-71
2023/04/06 03:51:50;;;;;;;;;8.00;6.00;;;;;10.94;69.93;100481.50;146619;576;46020;-70
2023/04/06 03:54:46;;;;;;;;;5.50;5.25;;;;;10.91;69.63;100475.28;146616;581;46016;-69
2023/04/06 03:57:56;;;;;;;;;6.00;5.50;;;;;10.95;69.62;100478.06;146618;565;46020;-69
2023/04/06 04:01:01;;;;;;;;;4.75;4.75;;;;;10.30;68.72;100349.75;146614;564;47012;-70
2023/04/06 04:03:56;;;;;;;;;6.25;6.00;;;;;11.03;69.35;100474.13;146621;571;46012;-71
2023/04/06 04:06:51;;;;;;;;;10.50;7.25;;;;;11.09;69.29;100473.53;146619;563;46016;-71
2023/04/06 04:10:06;;;;;;;;;15.50;13.00;;;;;11.15;68.65;100485.84;146605;586;46020;-70
2023/04/06 04:12:59;;;;;;;;;19.00;12.25;;;;;11.19;69.27;100485.19;146612;597;46012;-72
2023/04/06 04:16:16;;;;;;;;;12.25;12.00;;;;;11.23;69.08;100490.56;146613;718;46010;-73
2023/04/06 04:19:14;;;;;;;;;15.75;12.75;;;;;11.26;68.93;100490.72;146611;565;46017;-74
2023/04/06 04:22:11;;;;;;;;;12.25;9.25;;;;;11.26;69.24;100497.63;146612;743;46020;-73
2023/04/06 04:25:10;;;;;;;;;14.75;12.75;;;;;11.26;69.15;100500.22;146617;667;46016;-73
2023/04/06 04:28:15;;;;;;;;;15.75;13.00;;;;;11.28;69.11;100507.25;146614;650;46010;-73
2023/04/06 04:31:19;;;;;;;;;28.50;25.25;;;;;11.26;69.37;100506.28;146609;638;46016;-73
2023/04/06 04:34:30;;;;;;;;;16.25;12.00;;;;;11.30;68.70;100512.50;146610;626;46010;-73
2023/04/06 04:37:31;;;;;;;;;19.75;16.25;;;;;11.33;69.41;100516.13;146612;590;46012;-74
2023/04/06 04:40:33;;;;;;;;;15.25;13.25;;;;;11.37;69.04;100511.97;146605;635;46010;-72
2023/04/06 04:43:32;;;;;;;;;10.00;10.00;;;;;11.40;69.27;100517.31;146608;598;46016;-69
2023/04/06 04:46:30;;;;;;;;;11.50;10.50;;;;;11.46;68.82;100527.06;146615;651;46020;-72
2023/04/06 04:49:22;;;;;;;;;15.00;11.00;;;;;11.65;72.14;100528.75;146610;598;46012;-71
2023/04/06 04:52:17;;;;;;;;;14.75;10.75;;;;;12.17;75.00;100528.41;146613;592;46020;-69
2023/04/06 04:55:16;;;;;;;;;13.50;10.75;;;;;12.66;68.16;100535.59;146610;665;46017;-70
2023/04/06 04:58:30;;;;;;;;;17.25;15.25;;;;;12.82;66.02;100540.59;146608;608;46020;-70
2023/04/06 05:01:22;;;;;;;;;7.25;6.25;;;;;12.81;66.32;100536.22;146610;570;46918;-69
2023/04/06 05:04:17;;;;;;;;;23.75;17.50;;;;;12.74;65.29;100538.50;146620;577;46010;-68
2023/04/06 05:07:27;;;;;;;;;13.00;12.00;;;;;12.66;64.97;100539.09;146610;632;46016;-69
2023/04/06 05:10:20;;;;;;;;;8.25;7.50;;;;;12.55;64.17;100536.88;146607;599;46041;-70
2023/04/06 05:13:11;;;;;;;;;8.50;8.50;;;;;12.47;63.69;100547.88;146610;595;47918;-70
2023/04/06 05:16:13;;;;;;;;;12.50;10.25;;;;;12.40;63.56;100543.25;146620;583;46020;-70
2023/04/06 05:19:08;;;;;;;;;6.75;6.25;;;;;12.32;61.59;100549.84;146610;627;46012;-70
2023/04/06 05:22:02;;;;;;;;;9.25;7.25;;;;;12.22;61.75;100548.56;146620;619;46010;-69
2023/04/06 05:25:14;;;;;;;;;10.00;7.75;;;;;12.17;61.82;100550.09;146619;584;46042;-71
2023/04/06 05:28:19;;;;;;;;;14.00;10.25;;;;;12.15;61.85;100548.25;146621;570;46020;-70
2023/04/06 05:31:28;;;;;;;;;36.00;32.50;;;;;12.13;61.56;100539.50;146610;630;47012;-70
2023/04/06 05:34:20;;;;;;;;;26.50;25.00;;;;;12.15;61.79;100543.03;146612;625;46020;-69
2023/04/06 05:37:13;;;;;;;;;62.00;46.50;;;;;12.14;61.20;100534.34;146610;650;46014;-69
2023/04/06 05:40:42;;;;;;;;;24.75;22.50;;;;;12.16;61.44;100537.94;146607;580;46011;-70
2023/04/06 05:43:40;;;;;;;;;28.50;23.50;;;;;12.21;62.02;100532.91;146611;591;46012;-69
2023/04/06 05:46:33;;;;;;;;;23.00;20.50;;;;;12.24;62.08;100530.44;146613;598;46021;-69
2023/04/06 05:49:31;;;;;;;;;32.50;27.25;;;;;12.30;61.35;100529.81;146610;612;47012;-71
2023/04/06 05:52:46;;;;;;;;;;;;;;;;;;;;;
2023/04/06 05:55:51;;;;;;;;;15.00;12.50;;;;;12.36;61.23;100519.66;146612;571;46016;-72
2023/04/06 05:58:44;;;;;;;;;13.50;12.75;;;;;12.42;61.71;100528.59;146611;643;46010;-72
2023/04/06 06:01:49;;;;;;;;;17.75;14.75;;;;;11.47;60.92;100358.38;146611;597;46013;-71
2023/04/06 06:04:51;;;;;;;;;10.50;10.50;;;;;12.52;60.56;100531.56;146611;566;46020;-71
2023/04/06 06:07:43;;;;;;;;;14.00;12.00;;;;;12.53;59.31;100534.22;146609;617;46016;-71
2023/04/06 06:10:43;;;;;;;;;12.50;11.00;;;;;12.51;59.18;100535.87;146607;565;46020;-70
2023/04/06 06:13:37;;;;;;;;;10.75;10.75;;;;;12.51;59.58;100540.19;146609;577;47016;-70
2023/04/06 06:16:37;;;;;;;;;14.50;10.25;;;;;12.48;59.64;100543.56;146612;569;46021;-68
2023/04/06 06:19:38;;;;;;;;;14.25;10.25;;;;;12.47;59.52;100537.47;146608;631;46012;-70
2023/04/06 06:23:16;;;;;;;;;13.00;10.50;;;;;11.36;59.60;100325.00;146610;582;46018;-69
2023/04/06 06:26:14;;;;;;;;;14.75;11.25;;;;;12.66;59.63;100531.28;146611;579;46019;-69
2023/04/06 06:29:19;;;;;;;;;25.00;20.50;;;;;12.76;59.33;100534.25;146612;651;46020;-70
2023/04/06 06:32:15;;;;;;;;;20.75;18.00;;;;;12.85;58.59;100530.28;146608;649;46013;-70
2023/04/06 06:35:14;;;;;;;;;25.75;21.25;;;;;12.96;58.21;100530.72;146611;659;47010;-69
2023/04/06 06:38:10;;;;;;;;;37.50;32.00;;;;;13.03;58.54;100534.44;146609;564;46017;-70
2023/04/06 06:41:08;;;;;;;;;25.25;21.75;;;;;13.08;58.60;100530.28;146603;579;46029;-70
2023/04/06 06:44:11;;;;;;;;;22.25;21.25;;;;;13.16;59.65;100531.47;146612;632;46012;-70
2023/04/06 06:47:16;;;;;;;;;14.75;12.00;;;;;13.25;59.53;100538.78;146612;560;46021;-72
2023/04/06 06:50:14;;;;;;;;;15.75;15.50;;;;;13.35;59.42;100539.16;146611;575;46016;-70
2023/04/06 06:53:21;;;;;;;;;;;;;;;;;;;;;
2023/04/06 06:56:28;;;;;;;;;25.00;19.50;;;;;13.45;57.88;100536.91;146610;621;46033;-71
2023/04/06 06:59:30;;;;;;;;;20.00;14.50;;;;;13.42;57.17;100539.38;146613;648;46010;-71
2023/04/06 07:02:27;;;;;;;;;16.50;15.25;;;;;13.36;57.52;100538.34;146609;604;46035;-72
2023/04/06 07:05:31;;;;;;;;;16.75;13.75;;;;;13.31;55.79;100537.28;146610;571;47020;-70
2023/04/06 07:08:29;;;;;;;;;17.50;14.50;;;;;13.22;55.54;100538.63;146609;588;47012;-72
2023/04/06 07:11:24;;;;;;;;;20.25;17.00;;;;;13.16;57.21;100539.28;146607;580;46020;-71
2023/04/06 07:14:32;;;;;;;;;15.00;12.50;;;;;11.97;58.54;100332.72;146610;590;46016;-72
2023/04/06 07:17:52;;;;;;;;;;;;;;;;;;;;;
2023/04/06 07:20:57;;;;;;;;;13.50;9.50;;;;;12.94;57.56;100538.47;146606;633;47016;-72
2023/04/06 07:24:01;;;;;;;;;14.00;12.25;;;;;12.80;60.42;100531.81;146622;572;46010;-74
2023/04/06 07:27:04;;;;;;;;;12.00;12.00;;;;;12.09;61.10;100413.75;146607;651;47012;-73
2023/04/06 07:29:56;;;;;;;;;15.50;13.50;;;;;12.83;60.21;100550.16;146614;630;46010;-73
2023/04/06 07:33:16;;;;;;;;;13.50;12.00;;;;;11.67;60.72;100342.72;146610;581;46028;-73
2023/04/06 07:36:21;;;;;;;;;19.00;15.25;;;;;12.83;60.77;100544.06;146612;569;47010;-72
2023/04/06 07:39:45;;;;;;;;;16.25;13.50;;;;;12.81;61.80;100549.22;146610;586;46016;-71
2023/04/06 07:42:50;;;;;;;;;16.75;15.00;;;;;12.83;62.50;100544.94;146606;674;46020;-72
2023/04/06 07:46:00;;;;;;;;;19.75;17.25;;;;;12.19;62.16;100426.28;146611;581;46016;-72
2023/04/06 07:48:52;;;;;;;;;23.25;19.00;;;;;12.86;61.71;100552.00;146612;617;46020;-72
2023/04/06 07:51:53;;;;;;;;;24.75;19.00;;;;;12.88;64.14;100561.63;146607;598;47014;-72
2023/04/06 07:54:59;;;;;;;;;14.00;14.00;;;;;12.89;63.97;100566.00;146615;598;45020;-72
2023/04/06 07:58:02;;;;;;;;;16.50;13.25;;;;;12.86;65.50;100558.06;146611;592;46017;-71
2023/04/06 08:00:58;;;;;;;;;21.75;19.25;;;;;12.88;66.24;100558.16;146614;664;46010;-71
2023/04/06 08:03:52;;;;;;;;;18.50;15.75;;;;;12.84;66.58;100566.69;146609;618;47012;-71
2023/04/06 08:07:02;;;;;;;;;18.25;17.00;;;;;12.69;65.74;100574.75;146609;667;46010;-71
2023/04/06 08:10:00;;;;;;;;;16.25;13.75;;;;;12.43;65.51;100579.78;146609;579;46014;-72
2023/04/06 08:12:53;;;;;;;;;17.00;16.50;;;;;12.20;68.02;100575.31;146606;677;46020;-71
2023/04/06 08:16:00;;;;;;;;;18.25;17.50;;;;;11.98;69.61;100587.41;146605;600;46012;-72
2023/04/06 08:18:55;;;;;;;;;12.25;11.25;;;;;11.77;72.44;100584.75;146613;618;46020;-72
2023/04/06 08:21:53;;;;;;;;;16.25;14.00;;;;;11.64;73.87;100587.59;146610;631;46012;-69
2023/04/06 08:24:49;;;;;;;;;19.50;14.00;;;;;11.53;75.05;100581.06;146608;613;46020;-72
2023/04/06 08:27:52;;;;;;;;;23.75;19.75;;;;;10.83;76.96;100474.91;146612;615;46012;-71
2023/04/06 08:31:26;;;;;;;;;20.00;18.00;;;;;10.61;76.62;100460.94;146611;621;46029;-71
2023/04/06 08:34:21;;;;;;;;;20.00;19.25;;;;;11.32;77.37;100578.38;146611;610;46015;-70
2023/04/06 08:37:39;;;;;;;;;21.50;16.00;;;;;11.37;76.46;100569.09;146613;635;46021;-70
2023/04/06 08:41:16;;;;;;;;;19.50;17.75;;;;;11.46;75.69;100576.37;146609;709;46915;-70
2023/04/06 08:44:24;;;;;;;;;17.75;15.00;;;;;10.86;73.90;100456.91;146606;667;46020;-70
2023/04/06 08:47:37;;;;;;;;;22.50;19.25;;;;;11.63;72.87;100574.56;146608;589;47016;-70
2023/04/06 08:50:48;;;;;;;;;27.00;21.00;;;;;11.05;72.97;100456.91;146614;594;46010;-71
2023/04/06 08:53:44;;;;;;;;;21.25;16.50;;;;;11.77;72.66;100574.34;146617;614;46016;-70
2023/04/06 08:56:41;;;;;;;;;18.25;14.75;;;;;11.83;71.28;100570.22;146619;574;46021;-71
2023/04/06 09:00:02;;;;;;;;;17.00;15.50;;;;;10.67;70.09;100348.84;146616;564;46014;-70
2023/04/06 09:03:19;;;;;;;;;18.75;12.75;;;;;12.04;69.84;100567.72;146619;663;46012;-71
2023/04/06 09:06:38;;;;;;;;;;;;;;;;;;;;;
2023/04/06 09:09:48;;;;;;;;;14.25;9.50;;;;;12.21;67.90;100565.00;146621;659;46010;-69
2023/04/06 09:12:50;;;;;;;;;14.25;13.50;;;;;12.30;68.53;100564.47;146614;565;46014;-70
2023/04/06 09:16:12;;;;;;;;;7.50;7.50;;;;;12.32;67.00;100564.56;146613;631;46020;-70
2023/04/06 09:19:10;;;;;;;;;7.50;7.00;;;;;12.24;66.28;100564.22;146618;586;46016;-70
2023/04/06 09:22:21;;;;;;;;;7.75;6.50;;;;;12.21;66.73;100562.41;146622;597;46021;-70
2023/04/06 09:25:34;;;;;;;;;6.00;5.00;;;;;12.24;67.43;100569.41;146618;613;46029;-70
2023/04/06 09:28:50;;;;;;;;;6.25;5.00;;;;;12.29;66.76;100570.50;146622;579;46021;-69
2023/04/06 09:31:50;;;;;;;;;6.00;5.50;;;;;11.83;68.35;100471.50;146617;606;46012;-70
2023/04/06 09:34:51;;;;;;;;;9.75;7.75;;;;;12.44;67.34;100563.34;146617;598;47012;-70
2023/04/06 09:37:48;;;;;;;;;15.50;12.00;;;;;12.44;68.26;100565.94;146619;582;46012;-71
2023/04/06 09:41:06;;;;;;;;;9.00;8.00;;;;;12.48;68.81;100564.34;146621;612;46013;-70
2023/04/06 09:44:31;;;;;;;;;;;;;;;;;;;;;
2023/04/06 09:47:42;;;;;;;;;24.75;19.00;;;;;12.64;70.68;100563.25;146614;589;46020;-71
2023/04/06 09:50:58;;;;;;;;;27.75;23.75;;;;;12.60;69.74;100566.56;146615;596;46012;-70
2023/04/06 09:54:06;;;;;;;;;29.25;28.50;;;;;12.61;70.62;100564.03;146621;600;46020;-70
2023/04/06 09:57:11;;;;;;;;;16.50;14.75;;;;;12.65;70.41;100563.34;146617;580;46012;-69
2023/04/06 10:00:23;;;;;;;;;;;;;;;;;;;;;
2023/04/06 10:03:47;;;;;;;;;18.75;16.50;;;;;12.53;71.35;100556.75;146618;578;46018;-71
2023/04/06 10:06:45;;;;;;;;;22.25;17.00;;;;;12.54;72.10;100549.00;146620;580;46010;-71
2023/04/06 10:09:50;;;;;;;;;15.75;13.50;;;;;12.58;70.76;100560.41;146613;585;46016;-72
2023/04/06 10:13:09;;;;;;;;;16.25;15.25;;;;;12.45;70.11;100551.22;146620;566;46021;-71
2023/04/06 10:16:25;;;;;;;;;17.75;16.25;;;;;11.71;69.56;100428.62;146616;606;46012;-72
2023/04/06 10:19:27;;;;;;;;;15.00;13.75;;;;;12.54;70.20;100546.41;146615;585;46011;-72
2023/04/06 10:22:36;;;;;;;;;17.00;14.00;;;;;12.58;69.87;100547.41;146615;593;46012;-72
2023/04/06 10:26:04;;;;;;;;;17.25;13.00;;;;;12.39;70.17;100520.66;146618;579;46020;-71
2023/04/06 10:29:25;;;;;;;;;;;;;;;;;;;;;
2023/04/06 10:32:21;;;;;;;;;14.75;11.00;;;;;12.48;69.53;100544.44;146619;602;46023;-72
2023/04/06 10:35:17;;;;;;;;;13.00;11.25;;;;;12.51;69.89;100546.28;146613;610;47017;-73
2023/04/06 10:38:21;;;;;;;;;12.00;11.25;;;;;12.56;69.28;100546.47;146620;590;46010;-71
2023/04/06 10:41:22;;;;;;;;;15.00;12.50;;;;;12.63;69.15;100540.69;146616;630;46013;-72
2023/04/06 10:44:49;;;;;;;;;14.00;12.00;;;;;11.51;68.51;100330.81;146620;587;46010;-72
2023/04/06 10:48:05;;;;;;;;;16.25;13.50;;;;;12.78;68.54;100535.22;146615;605;46016;-73
2023/04/06 10:51:00;;;;;;;;;16.50;14.25;;;;;12.86;69.32;100544.19;146615;587;47010;-72
2023/04/06 10:54:02;;;;;;;;;16.00;13.50;;;;;12.84;69.28;100533.72;146614;621;46016;-74
2023/04/06 10:57:09;;;;;;;;;19.75;18.00;;;;;12.81;69.65;100519.72;146620;680;46012;-73
2023/04/06 11:00:16;;;;;;;;;16.25;15.50;;;;;12.10;69.70;100396.44;146608;569;47916;-71
2023/04/06 11:03:09;;;;;;;;;15.50;13.00;;;;;12.85;69.42;100522.50;146618;569;46011;-71
2023/04/06 11:06:05;;;;;;;;;17.00;13.75;;;;;13.00;68.82;100514.38;146614;613;47012;-73
2023/04/06 11:09:11;;;;;;;;;21.75;18.25;;;;;13.20;68.08;100525.53;146621;587;46020;-72
2023/04/06 11:12:15;;;;;;;;;6.50;6.50;;;;;13.42;67.40;100513.34;146613;632;47917;-73
2023/04/06 11:15:11;;;;;;;;;23.75;21.00;;;;;13.63;65.84;100512.41;146620;607;46020;-72
2023/04/06 11:18:18;;;;;;;;;19.75;14.50;;;;;13.80;65.13;100515.59;146618;611;46035;-72
2023/04/06 11:21:19;;;;;;;;;14.00;12.00;;;;;13.97;65.54;100513.56;146613;605;46010;-70
2023/04/06 11:24:30;;;;;;;;;19.25;16.25;;;;;14.17;64.18;100514.22;146616;582;47012;-72
2023/04/06 11:27:31;;;;;;;;;12.00;11.00;;;;;14.31;64.86;100506.88;146621;579;46010;-71
2023/04/06 11:30:37;;;;;;;;;19.25;15.00;;;;;14.45;65.47;100502.09;146614;610;46012;-73
2023/04/06 11:33:42;;;;;;;;;17.25;15.00;;;;;14.60;63.91;100505.22;146615;590;46021;-73
2023/04/06 11:37:09;;;;;;;;;16.25;12.75;;;;;14.06;62.97;100386.13;146614;614;46012;-71
2023/04/06 11:40:24;;;;;;;;;22.00;18.75;;;;;14.56;62.29;100492.94;146621;577;46021;-71
2023/04/06 11:43:30;;;;;;;;;19.25;16.00;;;;;14.51;62.10;100494.50;146607;570;47916;-72
2023/04/06 11:46:47;;;;;;;;;9.50;9.50;;;;;14.44;61.22;100487.28;146620;564;46021;-72
2023/04/06 11:50:01;;;;;;;;;19.00;18.75;;;;;14.35;61.99;100484.37;146616;573;46016;-72
2023/04/06 11:53:17;;;;;;;;;16.25;15.00;;;;;14.25;61.86;100471.03;146611;565;47012;-72
2023/04/06 11:56:11;;;;;;;;;20.25;18.00;;;;;14.19;62.28;100470.84;146617;599;46034;-73
2023/04/06 11:59:16;;;;;;;;;18.25;15.50;;;;;14.16;62.09;100465.53;146617;634;46020;-73
2023/04/06 12:02:25;;;;;;;;;;;;;;;;;;;;;
2023/04/06 12:05:30;;;;;;;;;23.75;18.50;;;;;14.19;62.30;100454.31;146619;588;46022;-72
2023/04/06 12:08:33;;;;;;;;;13.75;13.50;;;;;14.35;62.69;100453.97;146617;576;46012;-72
2023/04/06 12:11:25;;;;;;;;;5.75;2.75;;;;;14.58;61.70;100441.69;146621;620;46020;-72
2023/04/06 12:14:35;;;;;;;;;13.00;12.50;;;;;14.21;61.26;100325.75;146617;595;46916;-72
2023/04/06 12:17:30;;;;;;;;;15.25;12.00;;;;;15.16;60.65;100427.69;146621;554;46010;-72
2023/04/06 12:20:41;;;;;;;;;12.50;11.00;;;;;15.36;57.74;100443.06;146616;591;46016;-73
2023/04/06 12:23:39;;;;;;;;;12.00;11.50;;;;;15.49;58.64;100437.31;146614;566;45020;-72
2023/04/06 12:26:36;;;;;;;;;12.50;10.00;;;;;15.62;59.03;100436.78;146615;605;46016;-72
2023/04/06 12:30:06;;;;;;;;;13.25;7.00;;;;;15.68;58.84;100434.38;146618;590;46012;-73
2023/04/06 12:33:05;;;;;;;;;10.75;10.75;;;;;15.68;58.57;100433.47;146617;564;46916;-72
2023/04/06 12:36:06;;;;;;;;;9.75;7.50;;;;;15.66;57.69;100424.69;146623;606;46010;-73
2023/04/06 12:39:08;;;;;;;;;12.50;12.00;;;;;15.65;57.81;100422.91;146616;615;46034;-71
2023/04/06 12:42:03;;;;;;;;;10.25;9.00;;;;;15.66;56.96;100424.69;146621;605;46010;-75
2023/04/06 12:45:07;;;;;;;;;8.00;6.75;;;;;15.73;56.50;100424.00;146617;568;46033;-70
2023/04/06 12:48:19;;;;;;;;;9.25;7.25;;;;;15.25;57.46;100319.97;146621;596;46026;-71
2023/04/06 12:51:18;;;;;;;;;9.00;7.00;;;;;15.91;56.05;100418.38;146616;563;46033;-71
2023/04/06 12:54:22;;;;;;;;;6.50;6.00;;;;;15.92;55.01;100428.00;146612;606;46020;-71
2023/04/06 12:57:33;;;;;;;;;5.50;4.00;;;;;15.07;55.71;100282.94;146615;588;46034;-71
2023/04/06 13:00:28;;;;;;;;;9.75;9.25;;;;;15.91;55.75;100429.72;146617;614;46020;-71
2023/04/06 13:03:36;;;;;;;;;6.75;6.75;;;;;16.01;55.41;100438.69;146612;703;46016;-73
2023/04/06 13:06:42;;;;;;;;;8.25;7.75;;;;;16.04;55.27;100436.13;146619;569;47020;-72
2023/04/06 13:09:47;;;;;;;;;6.75;5.25;;;;;15.82;55.83;100436.44;146614;599;46017;-72
2023/04/06 13:12:52;;;;;;;;;4.75;4.00;;;;;15.53;55.08;100433.94;146621;674;47010;-73
2023/04/06 13:15:52;;;;;;;;;9.50;6.00;;;;;15.18;56.03;100427.75;146618;692;46012;-72
2023/04/06 13:18:59;;;;;;;;;5.00;4.00;;;;;14.30;56.92;100319.94;146619;593;47020;-73
2023/04/06 13:21:51;;;;;;;;;7.25;6.00;;;;;14.80;56.94;100427.56;146617;654;46012;-73
2023/04/06 13:24:52;;;;;;;;;3.75;3.00;;;;;14.61;55.31;100422.59;146606;659;46021;-72
2023/04/06 13:27:56;;;;;;;;;6.00;5.00;;;;;14.44;56.82;100420.34;146618;596;46014;-71
2023/04/06 13:30:58;;;;;;;;;4.25;4.25;;;;;14.33;57.36;100414.81;146621;622;46011;-74
2023/04/06 13:33:56;;;;;;;;;7.00;6.00;;;;;14.29;58.44;100410.31;146605;571;49923;-71
2023/04/06 13:37:00;;;;;;;;;8.25;5.00;;;;;14.27;58.38;100408.53;146621;572;46020;-73
2023/04/06 13:40:08;;;;;;;;;7.50;6.25;;;;;14.28;58.19;100412.88;146615;719;46918;-73
2023/04/06 13:43:22;;;;;;;;;;;;;;;;;;;;;
2023/04/06 13:46:18;;;;;;;;;5.00;5.00;;;;;14.37;58.38;100407.97;146617;612;46014;-73
2023/04/06 13:49:17;;;;;;;;;5.00;5.00;;;;;14.42;58.38;100405.47;146620;649;46010;-72
2023/04/06 13:52:13;;;;;;;;;7.50;3.25;;;;;14.47;58.41;100403.91;146612;581;46016;-72
2023/04/06 13:55:24;;;;;;;;;12.75;9.25;;;;;14.52;57.59;100405.84;146615;573;46032;-72
2023/04/06 13:58:21;;;;;;;;;7.00;7.00;;;;;14.60;57.54;100397.34;146618;563;45584;-72
2023/04/06 14:01:27;;;;;;;;;6.00;5.25;;;;;14.66;56.84;100398.41;146619;583;46021;-72
2023/04/06 14:04:39;;;;;;;;;8.75;8.75;;;;;14.74;58.53;100393.44;146618;602;46016;-72
2023/04/06 14:07:38;;;;;;;;;18.75;16.75;;;;;14.82;56.23;100393.66;146620;602;46020;-72
2023/04/06 14:10:40;;;;;;;;;8.00;7.00;;;;;14.81;56.77;100391.88;146618;574;46017;-72
2023/04/06 14:13:41;;;;;;;;;14.25;13.50;;;;;14.85;56.90;100388.50;146619;578;46020;-71
2023/04/06 14:16:50;;;;;;;;;8.00;7.50;;;;;14.92;57.16;100393.06;146617;712;47014;-72
2023/04/06 14:20:00;;;;;;;;;13.75;13.75;;;;;14.97;57.19;100394.97;146618;644;46010;-71
2023/04/06 14:22:56;;;;;;;;;9.50;8.50;;;;;14.98;54.81;100388.94;146617;577;46936;-72
2023/04/06 14:25:50;;;;;;;;;7.75;6.75;;;;;14.98;54.92;100380.19;146615;659;47010;-73
2023/04/06 14:28:45;;;;;;;;;8.75;7.00;;;;;15.01;55.08;100389.00;146617;565;47012;-72
2023/04/06 14:31:51;;;;;;;;;9.75;9.00;;;;;14.82;56.19;100352.75;146621;580;46021;-72